16°C
Porth, Newquay, Cornwall. UK  Tell A Friend
 Ad **Ad
Updated16/08/2017 20:15 
 


More METAR Reports From


Metar Station     Metar Station     Metar Station     Metar Station     Metar Station
EGBB Birmingham     EGBE Coventry     EGLL London Heathrow     EGKK London Gatwick     EGGP Liverpool
EGGW Luton     EGNX East Midlands     EGLC London City     EGCC Mancester Intl     EGSS Stanstead
Local Metars Here                                
EGBB - Birmingham Airpo, United Kingdom
Updated: 16/08/2017 19:50
Clear
Clear
 Wind from S
Wind: S 12 mph , 19 km/h, 10 kts
Temperature: 18°C
Dew Point: 11°C
Humidity: 64%
Barometer: 1014 hPa
Summary: Clear
Visibility: greater than 7 miles , 10 km
2017/08/16 18:50 EGBB 161850Z 19010KT 150V220 CAVOK 18/11 Q1014
EGBE - Coventry Airport, United Kingdom
Updated: 18/07/2017 14:50

NOT Current
Clear
Clear
 Wind from E
Wind: E 16 mph , 26 km/h, 14 kts
Temperature: 27°C
Heat Index: 27°C
Dew Point: 14°C
Humidity: 45%
Barometer: 1015 hPa
Summary: Clear
Visibility: greater than 7 miles , 10 km
2017/07/18 13:50 EGBE 181350Z 10014KT 060V120 CAVOK 27/14 Q1015
 
EGLL - London/Heathrow, United Kingdom
Updated: 16/08/2017 20:20
Clear
Clear
 Wind from S
Wind: S 13 mph , 20 km/h, 11 kts
Temperature: 18°C
Dew Point: 12°C
Humidity: 68%
Barometer: 1017 hPa
Clouds: Clear
Visibility: 6 miles , 10 km
2017/08/16 19:20 EGLL 161920Z AUTO 19011KT 9999 NCD 18/12 Q1017 NOSIG
EGKK - London/Gatwick A, United Kingdom
Updated: 16/08/2017 20:20
Clear
Clear
 Wind from S
Wind: S 7 mph , 11 km/h, 6 kts
Temperature: 17°C
Dew Point: 13°C
Humidity: 77%
Barometer: 1017 hPa
Summary: Clear
Visibility: greater than 7 miles , 10 km
2017/08/16 19:20 EGKK 161920Z 18006KT 150V210 CAVOK 17/13 Q1017
 
EGGP - Liverpool Airpor, United Kingdom
Updated: 16/08/2017 20:20
Nearby showers, Partly cloudy
Nearby showers, Partly cloudy
 Wind from S
Wind: S 16 mph , 26 km/h, 14 kts
Temperature: 18°C
Dew Point: 14°C
Humidity: 78%
Barometer: 1011 hPa
Summary: Nearby Showers
Clouds: Partly Cloudy
Visibility: 6 miles , 10 km
Cloud details: Partly Cloudy 975 m
2017/08/16 19:20 EGGP 161920Z 18014KT 9999 VCSH SCT032 18/14 Q1011
EGGW - Luton Airport, United Kingdom
Updated: 16/08/2017 20:20
Clear
Clear
 Wind from S
Wind: S 7 mph , 11 km/h, 6 kts
Temperature: 18°C
Dew Point: 11°C
Humidity: 64%
Barometer: 1016 hPa
Clouds: Clear
Visibility: 6 miles , 10 km
2017/08/16 19:20 EGGW 161920Z AUTO 19006KT 150V230 9999 NCD 18/11 Q1016
 
EGNX - East Midlands, United Kingdom
Updated: 16/08/2017 20:20
Partly Cloudy
Partly Cloudy
 Wind from SSW
Wind: SSW 10 mph , 17 km/h, 9 kts
Temperature: 18°C
Dew Point: 12°C
Humidity: 68%
Barometer: 1014 hPa
Clouds: Partly Cloudy
Visibility: 6 miles , 10 km
Cloud details: Partly Cloudy 1219 m
2017/08/16 19:20 EGNX 161920Z 20009KT 9999 SCT040 18/12 Q1014
EGLC - London City Airp, United Kingdom
Updated: 16/08/2017 20:20
Clear
Clear
 Wind from SSW
Wind: SSW 13 mph , 20 km/h, Gust: 25 mph , 41 km/h, 11 kts
Temperature: 20°C
Dew Point: 11°C
Humidity: 56%
Barometer: 1017 hPa
Clouds: Clear
Visibility: 6 miles , 10 km
2017/08/16 19:20 EGLC 161920Z AUTO 21011G22KT 170V230 9999 NCD 20/11 Q1017
 
EGCC - Manchester Intl, United Kingdom
Updated: 16/08/2017 20:20
Partly Cloudy
Partly Cloudy
 Wind from S
Wind: S 7 mph , 11 km/h, 6 kts
Temperature: 18°C
Dew Point: 12°C
Humidity: 68%
Barometer: 1012 hPa
Clouds: Partly Cloudy
Visibility: 6 miles , 10 km
Cloud details: Partly Cloudy 1097 m
2017/08/16 19:20 EGCC 161920Z AUTO 18006KT 130V260 9999 SCT036 18/12 Q1012 NOSIG
EGSS - Stansted Airport, United Kingdom
Updated: 16/08/2017 20:20
Clear
Clear
 Wind from S
Wind: S 10 mph , 17 km/h, 9 kts
Temperature: 18°C
Dew Point: 12°C
Humidity: 68%
Barometer: 1016 hPa
Clouds: Clear
Visibility: 6 miles , 10 km
2017/08/16 19:20 EGSS 161920Z AUTO 18009KT 9999 NCD 18/12 Q1016

Metar, brief description

METAR is a format for reporting weather information. A METAR weather report is predominantly used by pilots in fulfillment of a part of a pre-flight weather briefing, and by meteorologists, who use aggregated METAR information to assist in weather forecasting.

Raw METAR is the most popular format in the world for the transmission of weather data. Each METAR report contains essential information about the current weather conditions: Temperature, Dew Point, Barometric Pressure, Wind Speed and Direction, Visibility, Clouds Cover, Current Weather (Rain, Thunderstorms, Hail, Snow and so on...), here is an example of a raw metar report for EGHQ (Newquay airport).
METAR not available